Time;durP1;ratioP1;P1;durP2;ratioP2;P2;SDS_P1;SDS_P2;PMS_P1;PMS_P2;Temp;Humidity;BMP_temperature;BMP_pressure;BME280_temperature;BME280_humidity;BME280_pressure;Samples;Min_cycle;Max_cycle;Signal;HPM_P1;HPM_P2
2021/08/09 00:00:30;;;;;;;23.63;6.70;;;;;;;13.28;100.00;101256.81;5069670;28;20723;-66
2021/08/09 00:02:56;;;;;;;21.65;6.40;;;;;;;13.32;100.00;101263.88;5073595;28;20100;-67
2021/08/09 00:05:21;;;;;;;20.13;6.20;;;;;;;13.30;99.77;101255.06;5073805;28;20024;-65
2021/08/09 00:07:47;;;;;;;22.15;6.35;;;;;;;13.27;99.39;101263.91;5073408;28;20099;-67
2021/08/09 00:10:12;;;;;;;22.15;6.38;;;;;;;13.25;99.04;101268.31;5073386;28;20454;-70
2021/08/09 00:12:38;;;;;;;23.25;6.40;;;;;;;13.27;99.86;101265.69;5073269;28;20025;-67
2021/08/09 00:15:04;;;;;;;21.73;6.40;;;;;;;13.20;99.46;101263.00;5073147;28;20391;-66
2021/08/09 00:17:29;;;;;;;24.13;6.82;;;;;;;13.15;100.00;101267.44;5073228;28;20371;-66
2021/08/09 00:19:54;;;;;;;22.55;6.90;;;;;;;13.13;99.98;101266.53;5073188;28;20426;-66
2021/08/09 00:22:19;;;;;;;23.42;6.50;;;;;;;13.11;100.00;101268.31;5072958;28;20028;-67
2021/08/09 00:24:45;;;;;;;21.85;6.32;;;;;;;13.05;100.00;101265.66;5073092;28;20029;-65
2021/08/09 00:27:10;;;;;;;24.83;6.88;;;;;;;13.00;100.00;101275.38;5073191;28;20024;-67
2021/08/09 00:29:36;;;;;;;21.90;6.22;;;;;;;12.93;100.00;101271.84;5072969;28;20402;-66
2021/08/09 00:32:01;;;;;;;23.13;6.88;;;;;;;12.91;100.00;101268.28;5073010;28;20025;-67
2021/08/09 00:34:27;;;;;;;23.90;6.75;;;;;;;12.90;100.00;101267.41;5073250;28;20056;-64
2021/08/09 00:36:52;;;;;;;22.67;6.78;;;;;;;12.87;100.00;101274.47;5072851;28;20021;-67
2021/08/09 00:39:17;;;;;;;23.92;6.80;;;;;;;12.87;100.00;101277.13;5073280;28;20046;-63
2021/08/09 00:41:43;;;;;;;23.63;6.75;;;;;;;12.87;100.00;101278.03;5072994;28;20048;-64
2021/08/09 00:44:08;;;;;;;23.52;6.85;;;;;;;12.85;100.00;101273.59;5073050;28;20021;-67
2021/08/09 00:46:33;;;;;;;22.60;6.82;;;;;;;12.84;100.00;101270.06;5073077;28;20066;-64
2021/08/09 00:48:59;;;;;;;24.10;6.63;;;;;;;12.82;100.00;101274.47;5072776;28;20024;-64
2021/08/09 00:51:24;;;;;;;22.38;6.72;;;;;;;12.84;100.00;101272.72;5072630;28;20032;-68
2021/08/09 00:53:50;;;;;;;23.67;6.85;;;;;;;12.84;100.00;101271.81;5073123;28;20047;-67
2021/08/09 00:56:16;;;;;;;22.77;6.32;;;;;;;12.80;100.00;101270.94;5072650;28;20063;-66
2021/08/09 00:58:41;;;;;;;22.98;6.63;;;;;;;12.75;100.00;101259.41;5072635;28;20021;-64
2021/08/09 01:01:07;;;;;;;24.40;6.60;;;;;;;12.75;100.00;101266.50;5072932;28;20048;-66
2021/08/09 01:03:32;;;;;;;22.85;6.45;;;;;;;12.73;100.00;101269.16;5070831;28;20037;-66
2021/08/09 01:05:58;;;;;;;22.52;6.80;;;;;;;12.70;100.00;101272.66;5072601;28;20392;-66
2021/08/09 01:08:27;;;;;;;21.42;6.57;;;;;;;12.67;100.00;101275.31;5072966;28;20463;-66
2021/08/09 01:11:29;;;;;;;23.40;6.90;;;;;;;12.68;100.00;101276.19;5072554;28;20208;-65
2021/08/09 01:14:21;;;;;;;21.90;6.28;;;;;;;12.64;100.00;101277.06;5071987;28;20020;-65
2021/08/09 01:16:48;;;;;;;22.15;6.78;;;;;;;12.62;100.00;101271.75;4981646;28;20074;-66
2021/08/09 01:19:22;;;;;;;22.45;6.57;;;;;;;12.56;100.00;101277.91;4980707;28;20046;-66
2021/08/09 01:21:47;;;;;;;23.45;6.72;;;;;;;12.59;100.00;101270.88;4981217;28;20034;-65
2021/08/09 01:24:25;;;;;;;24.25;6.60;;;;;;;12.60;100.00;101275.31;4981504;28;20084;-64
2021/08/09 01:27:06;;;;;;;23.77;6.70;;;;;;;12.55;100.00;101269.97;4985000;28;20500;-65
2021/08/09 01:29:39;;;;;;;22.80;6.50;;;;;;;12.54;100.00;101271.75;4991613;28;20536;-66
2021/08/09 01:32:05;;;;;;;23.38;6.85;;;;;;;12.52;100.00;101270.88;4991557;28;20085;-66
2021/08/09 01:34:32;;;;;;;23.83;6.70;;;;;;;12.51;100.00;101277.03;4991017;28;20034;-65
2021/08/09 01:36:59;;;;;;;21.65;6.63;;;;;;;12.48;100.00;101277.03;4994877;28;20030;-67
2021/08/09 01:39:25;;;;;;;22.67;6.40;;;;;;;12.44;100.00;101274.38;4994841;28;20030;-66
2021/08/09 01:41:53;;;;;;;21.50;6.70;;;;;;;12.41;100.00;101276.97;4994602;28;20074;-67
2021/08/09 01:44:19;;;;;;;24.25;6.80;;;;;;;12.40;100.00;101272.59;4994818;28;20387;-66
2021/08/09 01:46:45;;;;;;;23.65;6.68;;;;;;;12.38;100.00;101285.84;4994578;28;20441;-66
2021/08/09 01:49:11;;;;;;;24.45;6.78;;;;;;;12.36;100.00;101283.19;4994591;28;20030;-66
2021/08/09 01:51:37;;;;;;;26.00;7.03;;;;;;;12.32;100.00;101288.44;4994598;28;20034;-67
2021/08/09 01:54:03;;;;;;;22.20;7.00;;;;;;;12.35;100.00;101291.13;5044754;28;20135;-67
2021/08/09 01:56:31;;;;;;;23.65;6.70;;;;;;;12.33;100.00;101290.22;5075901;28;20422;-69
2021/08/09 01:58:56;;;;;;;22.30;6.60;;;;;;;12.37;100.00;101292.88;5076336;28;20052;-67
2021/08/09 02:01:22;;;;;;;23.27;6.80;;;;;;;12.36;100.00;101296.44;5075861;28;20483;-66
2021/08/09 02:03:48;;;;;;;23.50;6.60;;;;;;;12.34;100.00;101292.88;5075930;28;20024;-69
2021/08/09 02:06:14;;;;;;;24.35;6.90;;;;;;;12.34;100.00;101297.31;5075795;28;20073;-66
2021/08/09 02:08:40;;;;;;;24.73;6.90;;;;;;;12.33;100.00;101295.53;5075601;28;20060;-67
2021/08/09 02:11:13;;;;;;;23.90;6.63;;;;;;;12.36;100.00;101291.13;5075912;28;20435;-66
2021/08/09 02:13:53;;;;;;;23.40;6.43;;;;;;;12.37;100.00;101297.31;5072809;28;20070;-65
2021/08/09 02:16:22;;;;;;;23.85;6.60;;;;;;;12.34;100.00;101303.47;5075729;28;20016;-67
2021/08/09 02:19:05;;;;;;;21.75;6.55;;;;;;;12.37;100.00;101302.63;5075421;28;20045;-64
2021/08/09 02:21:41;;;;;;;21.73;6.38;;;;;;;12.39;100.00;101290.25;5075654;28;20040;-67
2021/08/09 02:24:10;;;;;;;23.67;6.32;;;;;;;12.40;100.00;101299.97;5072014;28;20024;-66
2021/08/09 02:27:01;;;;;;;25.45;6.93;;;;;;;12.41;100.00;101296.44;5075395;28;20028;-66
2021/08/09 02:29:32;;;;;;;23.05;6.60;;;;;;;12.44;100.00;101296.47;5073943;28;20044;-69
2021/08/09 02:32:00;;;;;;;22.85;6.63;;;;;;;12.44;100.00;101293.81;5075493;28;20107;-64
2021/08/09 02:34:32;;;;;;;26.58;7.10;;;;;;;12.42;100.00;101289.38;5075138;28;20039;-66
2021/08/09 02:36:57;;;;;;;25.30;6.68;;;;;;;12.48;100.00;101289.38;5073729;28;20473;-67
2021/08/09 02:39:23;;;;;;;25.95;6.80;;;;;;;12.47;100.00;101287.63;5075131;28;20047;-65
2021/08/09 02:41:49;;;;;;;24.63;6.40;;;;;;;12.48;100.00;101278.78;5075393;28;20016;-66
2021/08/09 02:44:14;;;;;;;24.42;6.22;;;;;;;12.47;100.00;101277.91;5074937;28;20383;-65
2021/08/09 02:46:41;;;;;;;24.77;6.57;;;;;;;12.47;100.00;101285.84;5075141;28;20479;-67
2021/08/09 02:49:09;;;;;;;23.70;6.28;;;;;;;12.48;100.00;101284.09;5075195;28;20047;-66
2021/08/09 02:51:35;;;;;;;23.10;6.28;;;;;;;12.50;100.00;101282.34;5074867;28;20044;-67
2021/08/09 02:54:02;;;;;;;22.35;6.30;;;;;;;12.53;100.00;101285.88;5075001;28;20028;-64
2021/08/09 02:56:30;;;;;;;24.08;6.38;;;;;;;12.59;100.00;101289.44;5074998;28;20086;-65
2021/08/09 02:58:55;;;;;;;22.65;6.35;;;;;;;12.62;100.00;101284.16;5074626;28;20386;-64
2021/08/09 03:01:23;;;;;;;21.52;5.75;;;;;;;12.66;100.00;101288.59;5074902;28;20101;-65
2021/08/09 03:03:54;;;;;;;25.25;6.60;;;;;;;12.66;100.00;101289.44;5075061;28;20025;-65
2021/08/09 03:06:20;;;;;;;24.15;6.40;;;;;;;12.65;100.00;101284.16;5074640;28;20030;-65
2021/08/09 03:08:46;;;;;;;24.80;6.65;;;;;;;12.64;100.00;101293.88;5074622;28;20024;-65
2021/08/09 03:11:13;;;;;;;25.35;7.07;;;;;;;12.64;100.00;101290.31;5074722;28;20025;-65
2021/08/09 03:13:45;;;;;;;25.55;6.78;;;;;;;12.63;100.00;101291.22;5074344;28;20060;-68
2021/08/09 03:16:11;;;;;;;23.42;6.55;;;;;;;12.63;100.00;101289.44;5074358;28;20475;-65
2021/08/09 03:18:36;;;;;;;24.80;6.57;;;;;;;12.65;100.00;101292.09;5074584;28;20127;-68
2021/08/09 03:21:01;;;;;;;22.63;5.95;;;;;;;12.69;100.00;101288.59;5070417;28;20380;-67
2021/08/09 03:23:27;;;;;;;22.85;7.13;;;;;;;12.70;100.00;101295.66;5074201;28;20486;-66
2021/08/09 03:25:52;;;;;;;24.05;6.28;;;;;;;12.73;100.00;101296.53;5074471;28;20541;-66
2021/08/09 03:28:17;;;;;;;22.67;6.30;;;;;;;12.76;100.00;101295.69;5074067;28;20024;-65
2021/08/09 03:30:43;;;;;;;22.25;6.00;;;;;;;12.75;100.00;101299.19;5074313;28;20020;-66
2021/08/09 03:33:08;;;;;;;23.80;6.63;;;;;;;12.79;100.00;101289.50;5074233;28;20020;-68
2021/08/09 03:35:33;;;;;;;22.75;6.35;;;;;;;12.75;100.00;101300.97;5074219;28;20028;-66
2021/08/09 03:37:59;;;;;;;25.00;6.38;;;;;;;12.77;100.00;101292.16;5074420;28;20016;-67
2021/08/09 03:40:24;;;;;;;24.58;6.38;;;;;;;12.75;100.00;101287.72;5074019;28;20479;-66
2021/08/09 03:42:49;;;;;;;23.42;6.50;;;;;;;12.74;100.00;101289.47;5073732;28;20029;-65
2021/08/09 03:45:15;;;;;;;23.52;6.90;;;;;;;12.73;100.00;101298.31;5074257;28;20024;-64
2021/08/09 03:47:40;;;;;;;24.38;6.38;;;;;;;12.71;100.00;101300.06;5073513;28;20372;-64
2021/08/09 03:50:06;;;;;;;25.02;6.50;;;;;;;12.69;100.00;101300.06;5073945;28;20043;-65
2021/08/09 03:52:31;;;;;;;23.80;6.22;;;;;;;12.69;100.00;101296.53;5073864;28;20078;-66
2021/08/09 03:54:57;;;;;;;20.75;5.93;;;;;;;12.67;100.00;101301.84;5073691;28;20055;-66
2021/08/09 03:57:23;;;;;;;23.02;6.22;;;;;;;12.74;100.00;101297.41;5073558;28;20032;-67
2021/08/09 03:59:48;;;;;;;23.05;6.25;;;;;;;12.72;100.00;101296.53;5073624;28;20025;-66
2021/08/09 04:02:15;;;;;;;23.08;6.65;;;;;;;12.73;100.00;101301.84;5073479;28;20033;-65
2021/08/09 04:04:41;;;;;;;25.67;6.88;;;;;;;12.69;100.00;101300.06;5073653;28;20021;-65
2021/08/09 04:07:06;;;;;;;24.00;6.88;;;;;;;12.66;100.00;101300.06;5073692;28;20023;-67
2021/08/09 04:09:32;;;;;;;24.10;6.82;;;;;;;12.67;100.00;101300.97;5069386;28;20039;-65
2021/08/09 04:11:57;;;;;;;24.05;7.10;;;;;;;12.69;100.00;101304.50;5073498;28;20024;-63
2021/08/09 04:14:22;;;;;;;23.85;7.30;;;;;;;12.69;100.00;101296.53;5073471;28;20028;-63
2021/08/09 04:16:48;;;;;;;24.00;7.28;;;;;;;12.67;100.00;101296.53;5073175;28;20463;-64
2021/08/09 04:19:13;;;;;;;26.50;7.28;;;;;;;12.73;100.00;101295.66;5073369;28;20048;-64
2021/08/09 04:21:39;;;;;;;26.25;7.40;;;;;;;12.75;100.00;101301.84;5073096;28;20027;-64
2021/08/09 04:24:04;;;;;;;24.98;7.47;;;;;;;12.75;100.00;101306.28;5073181;28;20056;-66
2021/08/09 04:26:29;;;;;;;24.73;7.22;;;;;;;12.74;100.00;101308.03;5073195;28;20028;-65
2021/08/09 04:28:55;;;;;;;25.63;7.93;;;;;;;12.77;100.00;101312.47;5073061;28;20025;-66
2021/08/09 04:31:20;;;;;;;26.45;8.27;;;;;;;12.81;100.00;101311.59;5073113;28;20032;-64
2021/08/09 04:33:48;;;;;;;25.75;8.20;;;;;;;12.78;100.00;101315.13;5073369;28;20020;-64
2021/08/09 04:36:13;;;;;;;24.42;7.85;;;;;;;12.80;100.00;101321.34;5072881;28;20029;-63
2021/08/09 04:38:40;;;;;;;26.17;8.32;;;;;;;12.79;100.00;101316.91;5072870;28;20102;-64
2021/08/09 04:41:07;;;;;;;25.55;8.10;;;;;;;12.82;100.00;101326.66;5073092;28;20095;-65
2021/08/09 04:43:37;;;;;;;27.50;8.05;;;;;;;12.87;100.00;101319.56;5068703;28;20036;-65
2021/08/09 04:46:05;;;;;;;25.23;8.25;;;;;;;12.88;100.00;101311.59;5068897;28;20089;-65
2021/08/09 04:48:31;;;;;;;24.48;8.13;;;;;;;12.88;100.00;101319.56;5073144;28;20021;-65
2021/08/09 04:50:56;;;;;;;25.15;8.38;;;;;;;12.91;100.00;101308.09;5073010;28;20035;-66
2021/08/09 04:53:22;;;;;;;26.50;8.32;;;;;;;12.93;100.00;101311.66;5072769;28;20025;-65
2021/08/09 04:55:47;;;;;;;26.42;8.48;;;;;;;12.92;100.00;101312.53;5072965;28;20103;-65
2021/08/09 04:58:13;;;;;;;24.33;8.10;;;;;;;12.94;100.00;101304.56;5072547;28;20021;-64
2021/08/09 05:00:38;;;;;;;26.13;7.90;;;;;;;12.93;100.00;101311.66;5072505;28;20073;-65
2021/08/09 05:03:03;;;;;;;25.63;7.85;;;;;;;12.94;100.00;101313.41;5072705;28;20028;-64
2021/08/09 05:05:29;;;;;;;24.60;7.75;;;;;;;13.02;100.00;101310.78;5072742;28;20066;-66
2021/08/09 05:07:58;;;;;;;26.33;7.85;;;;;;;13.01;100.00;101306.34;5072736;28;20035;-65
2021/08/09 05:10:24;;;;;;;23.65;7.35;;;;;;;13.06;100.00;101312.53;5072750;28;20060;-65
2021/08/09 05:12:50;;;;;;;24.83;7.32;;;;;;;13.12;100.00;101315.22;5072486;28;20464;-65
2021/08/09 05:15:16;;;;;;;24.92;7.55;;;;;;;13.12;100.00;101312.56;5072339;28;20023;-65
2021/08/09 05:17:41;;;;;;;23.00;7.50;;;;;;;13.15;100.00;101316.97;5072617;28;20506;-65
2021/08/09 05:20:08;;;;;;;24.50;7.38;;;;;;;13.18;100.00;101323.19;5072340;28;20134;-65
2021/08/09 05:22:34;;;;;;;24.17;7.78;;;;;;;13.21;100.00;101317.88;5068300;28;20035;-65
2021/08/09 05:25:00;;;;;;;22.55;7.50;;;;;;;13.24;100.00;101320.53;5072576;28;20108;-65
2021/08/09 05:27:25;;;;;;;23.30;7.32;;;;;;;13.31;100.00;101328.47;5072237;28;20052;-65
2021/08/09 05:29:50;;;;;;;23.00;7.28;;;;;;;13.37;100.00;101325.88;5072478;28;20070;-64
2021/08/09 05:32:16;;;;;;;24.50;6.93;;;;;;;13.39;100.00;101329.41;5072099;28;20028;-65
2021/08/09 05:34:42;;;;;;;23.83;7.47;;;;;;;13.42;100.00;101326.75;5072530;28;20115;-65
2021/08/09 05:37:08;;;;;;;23.88;7.18;;;;;;;13.42;100.00;101326.75;5072686;28;20028;-65
2021/08/09 05:39:34;;;;;;;23.20;7.43;;;;;;;13.39;100.00;101321.44;5072254;28;20017;-65
2021/08/09 05:41:59;;;;;;;22.70;6.82;;;;;;;13.41;100.00;101320.56;5071392;28;20025;-64
2021/08/09 05:44:25;;;;;;;21.65;7.00;;;;;;;13.41;100.00;101323.22;5075249;28;20028;-65
2021/08/09 05:46:50;;;;;;;23.55;7.68;;;;;;;13.41;100.00;101325.88;5074547;28;20048;-67
2021/08/09 05:49:16;;;;;;;22.20;7.57;;;;;;;13.41;100.00;101331.19;5078199;28;20475;-67
2021/08/09 05:51:41;;;;;;;23.45;7.35;;;;;;;13.45;100.00;101326.75;5076740;28;20107;-66
2021/08/09 05:54:08;;;;;;;24.48;7.60;;;;;;;13.50;100.00;101332.97;5071377;28;20100;-67
2021/08/09 05:56:34;;;;;;;22.63;7.35;;;;;;;13.54;100.00;101324.13;5073542;28;20557;-65
2021/08/09 05:58:59;;;;;;;23.48;7.40;;;;;;;13.59;100.00;101332.94;5074384;28;20107;-66
2021/08/09 06:01:24;;;;;;;22.40;7.03;;;;;;;13.67;100.00;101330.28;5078039;28;20020;-65
2021/08/09 06:03:50;;;;;;;22.55;7.53;;;;;;;13.71;100.00;101336.50;5075891;28;20167;-66
2021/08/09 06:06:17;;;;;;;21.35;6.82;;;;;;;13.78;99.83;101340.91;5076210;28;20042;-66
2021/08/09 06:08:42;;;;;;;24.13;7.20;;;;;;;13.88;99.85;101332.03;5078546;28;20082;-65
2021/08/09 06:11:08;;;;;;;22.88;6.90;;;;;;;14.02;100.00;101337.31;5077653;28;20029;-71
2021/08/09 06:13:34;;;;;;;24.35;7.45;;;;;;;14.15;98.36;101332.88;5078253;28;20141;-66
2021/08/09 06:15:59;;;;;;;23.20;6.80;;;;;;;14.17;96.57;101347.06;5081125;28;20492;-67
2021/08/09 06:18:25;;;;;;;22.75;6.35;;;;;;;14.18;97.11;101342.63;5078088;28;20122;-68
2021/08/09 06:20:50;;;;;;;19.98;6.70;;;;;;;14.18;97.31;101339.94;5076180;28;20045;-60
2021/08/09 06:23:15;;;;;;;24.20;6.93;;;;;;;14.20;96.15;101348.78;5079443;28;20116;-61
2021/08/09 06:25:42;;;;;;;22.92;6.60;;;;;;;14.21;95.39;101356.81;5078693;28;20047;-61
2021/08/09 06:28:08;;;;;;;21.98;6.72;;;;;;;14.20;95.96;101349.69;5081535;28;20039;-60
2021/08/09 06:30:33;;;;;;;23.55;7.05;;;;;;;14.19;98.08;101353.25;5079905;28;20020;-60
2021/08/09 06:32:58;;;;;;;21.13;6.80;;;;;;;14.18;98.57;101351.47;5081172;28;20106;-60
2021/08/09 06:35:24;;;;;;;22.27;6.88;;;;;;;14.21;96.68;101354.13;5080007;28;20032;-60
2021/08/09 06:37:49;;;;;;;23.05;7.45;;;;;;;14.22;99.35;101358.53;5080811;28;20052;-61
2021/08/09 06:40:23;;;;;;;21.42;7.07;;;;;;;14.26;98.40;101347.03;5081411;28;20021;-61
2021/08/09 06:42:48;;;;;;;21.42;6.47;;;;;;;14.33;96.21;101347.91;5079347;28;20039;-60
2021/08/09 06:45:13;;;;;;;21.55;6.50;;;;;;;14.35;96.08;101355.88;5079317;28;20028;-61
2021/08/09 06:47:39;;;;;;;24.50;7.05;;;;;;;14.39;95.14;101352.31;5079516;28;20012;-61
2021/08/09 06:50:05;;;;;;;25.70;7.53;;;;;;;14.45;96.66;101352.28;5080176;28;20025;-61
2021/08/09 06:52:32;;;;;;;23.30;6.85;;;;;;;14.48;93.53;101346.94;5078707;28;20036;-63
2021/08/09 06:55:01;;;;;;;21.02;6.88;;;;;;;14.54;94.94;101346.91;5079641;28;20021;-61
2021/08/09 06:57:26;;;;;;;21.48;6.85;;;;;;;14.57;92.23;101356.66;5077925;28;20027;-60
2021/08/09 06:59:51;;;;;;;24.23;6.88;;;;;;;14.65;92.89;101349.59;5077095;28;20032;-60
2021/08/09 07:02:17;;;;;;;21.30;6.60;;;;;;;14.76;93.97;101354.84;5081139;28;20032;-61
2021/08/09 07:04:42;;;;;;;21.98;6.75;;;;;;;14.86;93.24;101355.69;5080816;28;20028;-61
2021/08/09 07:07:07;;;;;;;23.13;6.40;;;;;;;14.93;89.10;101355.63;5077022;28;20066;-61
2021/08/09 07:09:33;;;;;;;20.15;5.88;;;;;;;15.02;89.46;101356.50;5071717;28;20382;-61
2021/08/09 07:11:58;;;;;;;21.23;6.32;;;;;;;15.11;90.04;101359.09;5077798;28;20016;-61
2021/08/09 07:14:23;;;;;;;21.08;6.75;;;;;;;15.20;89.65;101351.03;5076957;28;20495;-61
2021/08/09 07:16:52;;;;;;;20.98;6.00;;;;;;;15.31;88.80;101343.84;5079654;28;20021;-62
2021/08/09 07:19:17;;;;;;;20.88;5.95;;;;;;;15.36;87.26;101341.16;5078044;28;20036;-62
2021/08/09 07:21:42;;;;;;;22.90;6.38;;;;;;;15.52;85.99;101344.56;5078072;28;20024;-61
2021/08/09 07:24:08;;;;;;;20.80;5.88;;;;;;;15.67;85.97;101352.44;5075902;28;20029;-65
2021/08/09 07:26:33;;;;;;;19.65;5.88;;;;;;;15.79;82.74;101347.94;5076094;28;20028;-63
2021/08/09 07:28:59;;;;;;;19.35;5.63;;;;;;;15.94;83.53;101361.13;5075186;28;20040;-64
2021/08/09 07:31:24;;;;;;;19.67;5.68;;;;;;;16.04;81.20;101357.44;5078552;28;20042;-62
2021/08/09 07:33:50;;;;;;;20.33;5.80;;;;;;;16.17;81.89;101355.53;5074860;28;20028;-62
2021/08/09 07:36:15;;;;;;;21.60;5.75;;;;;;;16.42;81.18;101363.28;5073797;28;20154;-62
2021/08/09 07:38:41;;;;;;;18.67;5.53;;;;;;;16.46;78.40;101364.13;5073552;28;20154;-62
2021/08/09 07:41:08;;;;;;;20.48;5.80;;;;;;;16.59;80.33;101363.09;5071571;28;20052;-61
2021/08/09 07:43:34;;;;;;;19.13;4.97;;;;;;;16.59;77.92;101360.41;5064211;28;20459;-64
2021/08/09 07:45:59;;;;;;;20.95;5.35;;;;;;;16.56;78.21;101355.13;5068266;28;20111;-63
2021/08/09 07:48:24;;;;;;;18.48;5.30;;;;;;;16.65;79.36;101355.00;5065053;28;20501;-66
2021/08/09 07:50:50;;;;;;;18.63;5.53;;;;;;;16.68;77.51;101352.28;5069048;28;20052;-61
2021/08/09 07:53:15;;;;;;;19.70;5.65;;;;;;;16.69;78.01;101364.72;5069718;28;20054;-62
2021/08/09 07:55:41;;;;;;;18.33;4.90;;;;;;;16.70;76.23;101365.59;5073533;28;20100;-64
2021/08/09 07:58:06;;;;;;;18.10;5.10;;;;;;;16.65;76.92;101360.31;5073653;28;20039;-64
2021/08/09 08:00:31;;;;;;;20.77;5.57;;;;;;;16.74;76.88;101362.00;5073859;28;20171;-64
2021/08/09 08:02:57;;;;;;;18.80;5.15;;;;;;;16.78;78.31;101363.72;5073614;28;20028;-62
2021/08/09 08:05:22;;;;;;;20.50;5.35;;;;;;;16.92;77.38;101354.69;5073279;28;20481;-64
2021/08/09 08:07:48;;;;;;;20.58;5.20;;;;;;;17.21;78.25;101356.91;5073592;28;20487;-64
2021/08/09 08:10:13;;;;;;;21.70;5.22;;;;;;;17.34;76.36;101355.81;5073777;28;20383;-63
2021/08/09 08:12:38;;;;;;;19.77;5.10;;;;;;;17.42;75.22;101351.25;5073333;28;20376;-64
2021/08/09 08:15:06;;;;;;;20.85;5.15;;;;;;;17.53;74.16;101359.09;5073350;28;20032;-63
2021/08/09 08:17:32;;;;;;;19.80;5.00;;;;;;;17.72;74.05;101356.09;5073645;28;20021;-64
2021/08/09 08:19:57;;;;;;;19.33;5.25;;;;;;;17.64;73.36;101345.53;5073019;28;20163;-64
2021/08/09 08:22:23;;;;;;;19.85;5.15;;;;;;;17.70;73.62;101349.91;5073011;28;20107;-64
2021/08/09 08:24:48;;;;;;;19.02;4.90;;;;;;;17.91;73.54;101338.88;5073255;28;20029;-62
2021/08/09 08:27:13;;;;;;;17.25;4.32;;;;;;;17.98;69.66;101360.16;5073097;28;20024;-63
2021/08/09 08:29:39;;;;;;;17.90;4.20;;;;;;;17.90;70.57;101353.16;5073300;28;20025;-62
2021/08/09 08:32:05;;;;;;;17.75;4.28;;;;;;;17.84;71.21;101341.63;5073122;28;20060;-62
2021/08/09 08:34:30;;;;;;;16.33;4.43;;;;;;;17.85;71.79;101354.97;5072653;28;20032;-63
2021/08/09 08:36:55;;;;;;;17.15;4.45;;;;;;;17.94;70.68;101354.00;5072716;28;20024;-62
2021/08/09 08:39:20;;;;;;;17.98;4.13;;;;;;;17.87;71.73;101346.94;5071910;28;20025;-62
2021/08/09 08:41:46;;;;;;;18.85;4.10;;;;;;;17.94;70.45;101346.84;5072609;28;20034;-63
2021/08/09 08:44:19;;;;;;;16.55;4.15;;;;;;;17.85;70.41;101343.41;5073091;28;20070;-62
2021/08/09 08:46:45;;;;;;;17.98;4.05;;;;;;;17.77;70.41;101346.22;5073136;28;20042;-64
2021/08/09 08:49:14;;;;;;;15.57;4.05;;;;;;;17.76;70.46;101345.31;5072726;28;20066;-63
2021/08/09 08:51:42;;;;;;;17.80;4.22;;;;;;;17.86;71.66;101348.72;5072763;28;20025;-62
2021/08/09 08:54:07;;;;;;;17.75;4.00;;;;;;;18.30;69.60;101340.78;5072981;28;20025;-63
2021/08/09 08:56:36;;;;;;;17.63;4.20;;;;;;;19.29;67.86;101352.06;5072522;28;20528;-63
2021/08/09 08:59:02;;;;;;;16.83;3.90;;;;;;;19.80;63.76;101359.75;5072694;28;20048;-63
2021/08/09 09:01:44;;;;;;;16.90;3.70;;;;;;;19.79;64.01;101355.34;5070029;28;20008;-62
2021/08/09 09:04:31;;;;;;;17.20;3.80;;;;;;;19.80;63.69;101359.75;5058696;28;20020;-63
2021/08/09 09:07:04;;;;;;;16.83;3.70;;;;;;;19.98;63.73;101365.56;5061609;28;20031;-62
2021/08/09 09:09:34;;;;;;;17.20;3.65;;;;;;;19.84;64.30;101366.81;5066307;28;20464;-62
2021/08/09 09:12:18;;;;;;;13.80;3.28;;;;;;;19.58;63.78;101366.56;5067564;28;20083;-62
2021/08/09 09:14:44;;;;;;;15.98;3.50;;;;;;;19.71;63.60;101375.19;5061910;28;20021;-62
2021/08/09 09:17:10;;;;;;;14.13;3.35;;;;;;;19.76;61.95;101383.97;5065525;28;20025;-61
2021/08/09 09:19:41;;;;;;;17.20;3.67;;;;;;;19.75;63.19;101377.75;5072604;28;20044;-60
2021/08/09 09:22:21;;;;;;;15.07;3.53;;;;;;;20.02;60.46;101375.28;5074954;28;20499;-60
2021/08/09 09:24:55;;;;;;;16.23;3.33;;;;;;;19.99;61.85;101372.69;5076551;28;20035;-60
2021/08/09 09:27:34;;;;;;;17.17;3.45;;;;;;;20.05;61.17;101366.28;5075587;28;20054;-62
2021/08/09 09:30:20;;;;;;;16.20;3.63;;;;;;;19.70;61.10;101374.28;5078567;28;20474;-61
2021/08/09 09:32:59;;;;;;;13.68;3.25;;;;;;;19.34;62.16;101364.44;5075353;28;20457;-61
2021/08/09 09:35:24;;;;;;;15.88;3.40;;;;;;;19.07;62.80;101357.94;5077255;28;20524;-60
2021/08/09 09:37:50;;;;;;;15.73;3.40;;;;;;;19.16;62.22;101364.88;5076964;28;20112;-62
2021/08/09 09:40:19;;;;;;;12.75;3.40;;;;;;;19.21;61.98;101362.06;5078550;28;20374;-61
2021/08/09 09:42:45;;;;;;;16.35;3.67;;;;;;;19.39;61.90;101358.97;5075488;28;20539;-61
2021/08/09 09:45:18;;;;;;;15.07;3.47;;;;;;;19.58;63.66;101371.94;5077119;28;20032;-60
2021/08/09 09:47:44;;;;;;;16.50;3.58;;;;;;;19.94;60.55;101364.78;5078254;28;20035;-60
2021/08/09 09:50:24;;;;;;;15.48;3.33;;;;;;;20.16;60.36;101362.38;5079999;28;20017;-61
2021/08/09 09:52:49;;;;;;;13.13;3.00;;;;;;;20.13;58.54;101370.53;5078455;28;20035;-61
2021/08/09 09:55:16;;;;;;;13.77;3.03;;;;;;;20.15;58.12;101379.44;5079778;28;20417;-61
2021/08/09 09:57:44;;;;;;;13.05;3.00;;;;;;;20.12;58.36;101374.13;5080025;28;20021;-61
2021/08/09 10:00:12;;;;;;;14.85;3.30;;;;;;;20.12;57.30;101371.44;5080259;28;20109;-61
2021/08/09 10:02:43;;;;;;;13.70;3.10;;;;;;;20.08;58.52;101380.50;5081755;28;20032;-62
2021/08/09 10:05:10;;;;;;;12.38;3.20;;;;;;;20.44;57.12;101383.09;5073775;28;20024;-62
2021/08/09 10:07:38;;;;;;;16.73;3.33;;;;;;;20.56;57.62;101373.78;5080517;28;20024;-61
2021/08/09 10:10:06;;;;;;;17.13;3.08;;;;;;;20.44;57.47;101372.34;5079492;28;20032;-61
2021/08/09 10:12:33;;;;;;;16.08;3.67;;;;;;;20.30;57.09;101367.38;5075218;28;20494;-61
2021/08/09 10:14:59;;;;;;;12.38;3.10;;;;;;;20.63;56.88;101377.19;5080875;28;20122;-62
2021/08/09 10:17:27;;;;;;;15.32;3.30;;;;;;;20.19;57.43;101375.72;5079760;28;20437;-61
2021/08/09 10:19:59;;;;;;;13.48;2.97;;;;;;;19.65;58.29;101374.41;5082286;28;20068;-67
2021/08/09 10:22:25;;;;;;;13.32;3.30;;;;;;;19.28;61.40;101380.69;5078476;28;20068;-64
2021/08/09 10:24:52;;;;;;;14.70;3.15;;;;;;;19.23;61.10;101377.22;5080998;28;20139;-62
2021/08/09 10:27:46;;;;;;;15.98;3.53;;;;;;;18.96;61.85;101384.06;5079988;28;20032;-62
2021/08/09 10:30:14;;;;;;;14.13;3.20;;;;;;;19.23;61.87;101387.94;5079625;28;20032;-65
2021/08/09 10:32:55;;;;;;;12.68;2.90;;;;;;;19.30;61.27;101386.00;5071765;28;20378;-62
2021/08/09 10:35:47;;;;;;;16.07;3.30;;;;;;;19.68;61.79;101392.22;5074832;28;20024;-66
2021/08/09 10:38:17;;;;;;;16.08;3.20;;;;;;;20.13;59.73;101402.72;5071752;28;20021;-62
2021/08/09 10:41:08;;;;;;;14.05;3.00;;;;;;;20.50;59.13;101385.63;5074967;28;20016;-62
2021/08/09 10:43:37;;;;;;;13.77;3.00;;;;;;;20.57;56.06;101390.81;5074465;28;20051;-63
2021/08/09 10:46:02;;;;;;;14.07;3.17;;;;;;;20.28;56.55;101422.03;5074949;28;20654;-61
2021/08/09 10:48:44;;;;;;;12.02;3.00;;;;;;;20.38;57.31;101410.97;5074975;28;20104;-62
2021/08/09 10:51:09;;;;;;;13.00;3.05;;;;;;;20.08;56.37;101395.72;5071607;28;20074;-65
2021/08/09 10:53:35;;;;;;;11.23;3.00;;;;;;;19.93;59.61;101394.31;5074701;28;20501;-65
2021/08/09 10:56:02;;;;;;;14.38;3.15;;;;;;;19.95;58.59;101401.41;5074934;28;20027;-65
2021/08/09 10:58:42;;;;;;;16.83;3.40;;;;;;;19.89;59.19;101396.19;5073993;28;20487;-65
2021/08/09 11:01:15;;;;;;;14.35;3.15;;;;;;;19.80;58.39;101394.63;5071122;28;20020;-64
2021/08/09 11:03:59;;;;;;;;;;;;;;;19.83;58.20;101396.34;5071718;28;20107;-64
2021/08/09 11:06:45;;;;;;;15.18;3.50;;;;;;;19.71;60.60;101394.84;5074506;28;19965;-64
2021/08/09 11:09:29;;;;;;;15.77;3.28;;;;;;;20.27;58.94;101402.38;5071392;28;20024;-64
2021/08/09 11:12:15;;;;;;;14.07;3.10;;;;;;;21.30;54.55;101381.47;5074521;28;20482;-64
2021/08/09 11:17:52;;;;;;;13.27;3.10;;;;;;;22.43;52.33;101397.41;5074467;28;20117;-65
2021/08/09 11:20:22;;;;;;;13.13;3.00;;;;;;;21.71;51.90;101385.53;5071930;28;20044;-65